createdAt,value
2019-01-25T00:01:15.690Z,64.79
2019-01-25T00:06:37.881Z,64.56
2019-01-25T00:12:00.231Z,64.38
2019-01-25T00:17:22.382Z,64.85
2019-01-25T00:22:44.596Z,64.83
2019-01-25T00:28:06.793Z,64.57
2019-01-25T00:33:09.481Z,64.96
2019-01-25T00:38:12.156Z,64.81
2019-01-25T00:43:14.836Z,64.62
2019-01-25T00:48:37.006Z,64.59
2019-01-25T00:53:59.203Z,64.40
2019-01-25T00:59:21.385Z,64.56
2019-01-25T01:04:43.563Z,64.55
2019-01-25T01:09:58.472Z,64.34
2019-01-25T01:15:01.126Z,64.16
2019-01-25T01:20:23.351Z,64.25
2019-01-25T01:25:45.531Z,64.12
2019-01-25T01:31:07.713Z,64.47
2019-01-25T01:36:29.927Z,64.65
2019-01-25T01:47:02.309Z,64.69
2019-01-25T01:52:24.468Z,64.63
2019-01-25T01:57:46.721Z,64.51
2019-01-25T02:03:08.886Z,64.58
2019-01-25T02:08:24.413Z,64.61
2019-01-25T02:13:46.599Z,64.40
2019-01-25T02:19:08.784Z,64.24
2019-01-25T02:24:50.497Z,64.42
2019-01-25T02:30:15.672Z,64.51
2019-01-25T02:35:37.948Z,64.49
2019-01-25T02:41:00.129Z,64.46
2019-01-25T02:46:02.898Z,64.39
2019-01-25T02:51:05.633Z,64.31
2019-01-25T02:56:48.119Z,64.29
2019-01-25T03:02:10.380Z,64.23
2019-01-25T03:07:26.115Z,64.20
2019-01-25T03:12:49.249Z,64.26
2019-01-25T03:18:04.410Z,64.35
2019-01-25T03:23:07.181Z,64.37
2019-01-25T03:28:29.360Z,64.39
2019-01-25T03:33:51.553Z,64.42
2019-01-25T03:39:13.726Z,64.50
2019-01-25T03:44:28.996Z,64.53
2019-01-25T03:49:51.365Z,64.45
2019-01-25T03:55:13.767Z,64.39
2019-01-25T04:00:35.975Z,64.41
2019-01-25T04:05:58.139Z,64.20
2019-01-25T04:11:13.040Z,64.51
2019-01-25T04:16:35.233Z,64.42
2019-01-25T04:21:57.433Z,64.28
2019-01-25T04:27:19.624Z,64.42
2019-01-25T04:32:41.804Z,64.46
2019-01-25T04:38:04.017Z,64.32
2019-01-25T04:43:26.202Z,64.49
2019-01-25T04:48:48.380Z,64.49
2019-01-25T04:54:10.557Z,64.52
2019-01-25T04:59:32.742Z,64.40
2019-01-25T05:04:54.925Z,64.28
2019-01-25T05:10:10.360Z,64.53
2019-01-25T05:15:32.550Z,64.71
2019-01-25T05:20:35.236Z,64.86
2019-01-25T05:25:57.422Z,64.68
2019-01-25T05:31:22.832Z,64.10
2019-01-25T05:36:45.025Z,63.96
2019-01-25T05:42:07.308Z,64.04
2019-01-25T05:47:29.506Z,64.00
2019-01-25T05:52:51.722Z,63.84
2019-01-25T05:58:00.098Z,63.55
2019-01-25T06:03:22.737Z,63.29
2019-01-25T06:08:32.464Z,63.23
2019-01-25T06:13:54.637Z,63.37
2019-01-25T06:19:16.819Z,63.10
2019-01-25T06:24:38.999Z,62.93
2019-01-25T06:30:01.288Z,62.71
2019-01-25T06:35:23.469Z,63.01
2019-01-25T06:40:45.650Z,63.12
2019-01-25T06:45:49.847Z,63.29
2019-01-25T06:51:12.399Z,63.44
2019-01-25T06:56:34.583Z,63.24
2019-01-25T07:02:16.369Z,63.18
2019-01-25T07:07:34.395Z,63.10
2019-01-25T07:12:56.602Z,62.97
2019-01-25T07:17:59.270Z,62.98
2019-01-25T07:23:21.468Z,62.85
2019-01-25T07:28:43.646Z,62.61
2019-01-25T07:34:05.832Z,62.75
2019-01-25T07:39:28.118Z,62.59
2019-01-25T07:44:50.366Z,62.21
2019-01-25T07:49:53.093Z,62.00
2019-01-25T07:54:55.740Z,61.86
2019-01-25T07:59:58.443Z,61.48
2019-01-25T08:05:20.624Z,61.41
2019-01-25T08:10:35.750Z,61.00
2019-01-25T08:15:58.067Z,60.80
2019-01-25T08:21:00.738Z,60.65
2019-01-25T08:26:22.940Z,60.87
2019-01-25T08:31:45.205Z,60.69
2019-01-25T08:37:07.385Z,60.75
2019-01-25T08:42:15.407Z,60.92
2019-01-25T08:47:14.732Z,60.72
2019-01-25T08:52:17.415Z,60.60
2019-01-25T08:57:20.113Z,60.61
2019-01-25T09:02:42.274Z,60.67
2019-01-25T09:07:57.772Z,60.53
2019-01-25T09:13:19.953Z,60.48
2019-01-25T09:18:42.137Z,60.42
2019-01-25T09:24:04.322Z,60.38
2019-01-25T09:29:07.012Z,60.64
2019-01-25T09:34:09.699Z,60.88
2019-01-25T09:39:12.378Z,60.89
2019-01-25T09:44:15.046Z,61.01
2019-01-25T09:49:37.231Z,61.05
2019-01-25T09:54:59.413Z,60.80
2019-01-25T10:00:46.287Z,60.51
2019-01-25T10:06:08.456Z,59.86
2019-01-25T10:11:24.062Z,58.28
2019-01-25T10:16:46.253Z,58.20
2019-01-25T10:21:48.928Z,58.60
2019-01-25T10:27:11.119Z,58.73
2019-01-25T10:32:13.798Z,59.08
2019-01-25T10:37:35.972Z,60.26
2019-01-25T10:42:58.152Z,60.38
2019-01-25T10:48:00.869Z,60.50
2019-01-25T10:53:44.367Z,60.01
2019-01-25T10:59:06.583Z,58.94
2019-01-25T11:04:28.773Z,57.92
2019-01-25T11:09:37.906Z,56.92
2019-01-25T11:14:56.979Z,56.17
2019-01-25T11:20:20.472Z,55.77
2019-01-25T11:25:42.674Z,55.00
2019-01-25T11:30:45.342Z,54.95
2019-01-25T11:36:07.557Z,55.21
2019-01-25T11:41:29.759Z,55.16
2019-01-25T11:46:51.938Z,55.06
2019-01-25T11:52:14.125Z,54.46
2019-01-25T11:57:36.305Z,54.06
2019-01-25T12:02:58.483Z,54.80
2019-01-25T12:08:13.551Z,54.67
2019-01-25T12:13:16.591Z,54.37
2019-01-25T12:18:19.384Z,54.47
2019-01-25T12:23:41.586Z,54.40
2019-01-25T12:28:44.263Z,54.21
2019-01-25T12:33:46.946Z,54.05
2019-01-25T12:39:09.398Z,54.27
2019-01-25T12:44:31.575Z,54.92
2019-01-25T12:49:53.766Z,54.92
2019-01-25T12:54:56.450Z,55.67
2019-01-25T13:00:40.156Z,56.67
2019-01-25T13:05:43.319Z,56.91
2019-01-25T13:11:00.501Z,57.55
2019-01-25T13:16:22.679Z,57.33
2019-01-25T13:21:25.366Z,57.82
2019-01-25T13:26:47.562Z,58.08
2019-01-25T13:32:14.442Z,57.81
2019-01-25T13:37:33.945Z,57.94
2019-01-25T13:42:36.713Z,58.18
2019-01-25T13:47:39.410Z,58.77
2019-01-25T13:52:42.110Z,58.83
2019-01-25T13:57:44.871Z,59.29
2019-01-25T14:02:47.545Z,59.52
2019-01-25T14:08:03.183Z,59.91
2019-01-25T14:13:05.953Z,60.09
2019-01-25T14:18:28.157Z,60.55
2019-01-25T14:23:50.350Z,60.74
2019-01-25T14:29:12.622Z,60.90
2019-01-25T14:34:34.825Z,60.85
2019-01-25T14:39:37.515Z,60.83
2019-01-25T14:44:59.705Z,61.24
2019-01-25T14:50:22.319Z,61.45
2019-01-25T14:55:44.500Z,61.58
2019-01-25T15:00:47.283Z,61.77
2019-01-25T15:06:09.472Z,62.13
2019-01-25T15:11:24.783Z,62.67
2019-01-25T15:16:46.970Z,63.48
2019-01-25T15:22:09.154Z,64.60
2019-01-25T15:27:11.825Z,64.95
2019-01-25T15:32:14.513Z,65.50
2019-01-25T15:37:36.693Z,66.15
2019-01-25T15:42:58.896Z,67.00
2019-01-25T15:48:21.078Z,67.24
2019-01-25T15:53:43.276Z,67.75
2019-01-25T15:59:05.502Z,68.45
2019-01-25T16:04:08.190Z,69.61
2019-01-25T16:09:23.696Z,70.19
2019-01-25T16:14:46.053Z,70.78
2019-01-25T16:20:10.129Z,71.24
2019-01-25T16:25:33.512Z,70.95
2019-01-25T16:30:55.705Z,70.83
2019-01-25T16:36:17.925Z,71.42
2019-01-25T16:41:40.108Z,71.37
2019-01-25T16:47:02.303Z,71.93
2019-01-25T16:52:25.492Z,72.65
2019-01-25T16:57:47.829Z,72.96
2019-01-25T17:03:10.816Z,72.93
2019-01-25T17:08:26.225Z,73.23
2019-01-25T17:13:48.406Z,73.63
2019-01-25T17:18:51.106Z,73.96
2019-01-25T17:24:13.287Z,74.57
2019-01-25T17:29:35.486Z,75.12
2019-01-25T17:34:57.740Z,75.38
2019-01-25T17:40:00.432Z,76.12
2019-01-25T17:45:22.648Z,76.46
2019-01-25T17:50:44.835Z,76.81
2019-01-25T17:56:07.244Z,77.21
2019-01-25T18:01:29.616Z,77.54
2019-01-25T18:06:53.164Z,77.87
2019-01-25T18:12:09.392Z,78.15
2019-01-25T18:17:51.588Z,78.40
2019-01-25T18:23:35.696Z,78.54
2019-01-25T18:29:19.738Z,78.68
2019-01-25T18:34:41.983Z,79.23
2019-01-25T18:40:07.256Z,79.41
2019-01-25T18:45:31.174Z,79.72
2019-01-25T18:50:54.297Z,80.07
2019-01-25T18:56:18.730Z,80.04
2019-01-25T19:01:41.837Z,80.28
2019-01-25T19:07:05.077Z,80.38
2019-01-25T19:12:21.514Z,80.47
2019-01-25T19:17:43.776Z,80.70
2019-01-25T19:23:05.960Z,80.43
2019-01-25T19:28:28.137Z,79.90
2019-01-25T19:33:30.948Z,80.17
2019-01-25T19:38:54.277Z,80.08
2019-01-25T19:44:16.550Z,80.33
2019-01-25T19:49:19.871Z,80.24
2019-01-25T19:54:42.620Z,80.17
2019-01-25T19:59:47.713Z,80.32
2019-01-25T20:05:11.720Z,80.89
2019-01-25T20:10:36.599Z,81.61
2019-01-25T20:15:59.983Z,82.17
2019-01-25T20:21:23.559Z,82.68
2019-01-25T20:26:46.681Z,83.18
2019-01-25T20:32:09.161Z,83.95
2019-01-25T20:37:31.972Z,84.47
2019-01-25T20:42:54.751Z,84.66
2019-01-25T20:48:16.979Z,84.69
2019-01-25T20:53:39.190Z,85.00
2019-01-25T20:59:01.401Z,85.27
2019-01-25T21:04:04.291Z,85.36
2019-01-25T21:09:09.644Z,85.35
2019-01-25T21:14:31.840Z,85.60
2019-01-25T21:19:54.037Z,85.68
2019-01-25T21:25:16.454Z,85.44
2019-01-25T21:30:38.760Z,85.22
2019-01-25T21:36:00.958Z,85.26
2019-01-25T21:41:23.142Z,85.10
2019-01-25T21:46:45.349Z,84.90
2019-01-25T21:51:48.403Z,85.13
2019-01-25T21:56:51.105Z,85.14
2019-01-25T22:07:09.968Z,84.81
2019-01-25T22:12:12.671Z,84.89
2019-01-25T22:17:34.877Z,85.02
2019-01-25T22:22:37.594Z,85.00
2019-01-25T22:27:59.790Z,85.33
2019-01-25T22:33:02.482Z,85.23
2019-01-25T22:38:24.870Z,85.59
2019-01-25T22:43:27.574Z,85.63
2019-01-25T22:48:30.285Z,85.79
2019-01-25T22:53:33.002Z,86.22
2019-01-25T22:59:07.514Z,85.96
2019-01-25T23:04:42.361Z,85.81
2019-01-25T23:10:19.300Z,85.40
2019-01-25T23:15:22.001Z,85.87
2019-01-25T23:20:44.193Z,85.90
2019-01-25T23:26:06.389Z,85.84
2019-01-25T23:31:28.577Z,86.01
2019-01-25T23:36:50.768Z,85.84
2019-01-25T23:41:53.454Z,85.78
2019-01-25T23:47:15.647Z,86.02
2019-01-25T23:52:37.853Z,85.95
2019-01-25T23:58:00.056Z,86.29
